Fort Benton (79S)
Fort Benton, MT
Field Elevation: 2869
Lat: 47°50.42N  Long: 110°38.11W
CTAF/Unicom Freq: 122.8000
   
     For Weather-by-Phone, call 406-622-5976
Weather Advisories
7/28/2014 20:27 Z
Altimeter 30.15" Hg
Wind 080° @ 11 KT
Gusts 14 KT
Visibility 10 SM
Temperature 34° C (93° F)
Dewpoint 5° C (41° F)
Relative Humidity 17%
Density Altitude 5,400 feet
Condensation Altitude 17,300 feet
Heat Index 32° C (90° F)
  Wind and Runways
Indicated Runway = 5
History
 
 
More Info
All DigiWx sites map
NOAA Forecast
 
Airport IQ 5010
(6S5) Ravalli County
(S71) Edgar Obie
 
about DigiWx
 
FAA Disclaimer: The data displayed is for advisory purposes only and is not to be used for flight planning or operations. For official data, please call 406-622-5976 to hear the current automated AWOS voice message.
  METAR 79S 282027Z AUTO 08011G14KT 10SM 34/05 A3015